createdAt,value
2022-09-26T00:00:24.548Z,2.30
2022-09-26T00:01:24.636Z,2.10
2022-09-26T00:02:24.520Z,2.40
2022-09-26T00:03:24.493Z,2.60
2022-09-26T00:04:27.906Z,2.10
2022-09-26T00:05:24.477Z,2.20
2022-09-26T00:06:24.461Z,2.20
2022-09-26T00:07:24.438Z,2.00
2022-09-26T00:08:24.428Z,2.00
2022-09-26T00:09:24.421Z,2.40
2022-09-26T00:10:24.458Z,2.00
2022-09-26T00:11:24.409Z,1.90
2022-09-26T00:12:24.385Z,1.90
2022-09-26T00:13:24.389Z,2.10
2022-09-26T00:14:24.363Z,1.90
2022-09-26T00:15:24.365Z,1.90
2022-09-26T00:16:24.440Z,2.10
2022-09-26T00:17:24.353Z,2.20
2022-09-26T00:18:24.327Z,1.90
2022-09-26T00:19:24.313Z,2.00
2022-09-26T00:20:24.292Z,2.10
2022-09-26T00:21:24.349Z,1.80
2022-09-26T00:22:24.274Z,1.80
2022-09-26T00:23:24.279Z,2.00
2022-09-26T00:24:24.253Z,2.00
2022-09-26T00:25:24.252Z,2.30
2022-09-26T00:26:24.265Z,1.80
2022-09-26T00:27:24.228Z,1.90
2022-09-26T00:28:24.212Z,2.00
2022-09-26T00:29:24.213Z,2.20
2022-09-26T00:30:24.235Z,1.80
2022-09-26T00:31:24.257Z,2.20
2022-09-26T00:32:24.165Z,1.90
2022-09-26T00:33:24.185Z,2.30
2022-09-26T00:34:24.148Z,1.90
2022-09-26T00:35:24.173Z,2.40
2022-09-26T00:36:34.024Z,2.20
2022-09-26T00:37:24.129Z,2.40
2022-09-26T00:38:24.113Z,1.90
2022-09-26T00:39:24.101Z,1.90
2022-09-26T00:40:24.133Z,2.10
2022-09-26T00:41:24.099Z,1.90
2022-09-26T00:42:24.064Z,2.40
2022-09-26T00:43:24.060Z,1.90
2022-09-26T00:44:24.049Z,2.10
2022-09-26T00:45:24.068Z,1.90
2022-09-26T00:46:24.116Z,1.80
2022-09-26T00:47:24.034Z,2.20
2022-09-26T00:48:23.997Z,2.10
2022-09-26T00:49:23.984Z,2.70
2022-09-26T00:50:23.977Z,2.40
2022-09-26T00:51:23.978Z,2.50
2022-09-26T00:52:23.952Z,2.80
2022-09-26T00:53:23.944Z,2.30
2022-09-26T00:54:23.936Z,2.00
2022-09-26T00:55:23.925Z,2.20
2022-09-26T00:56:23.932Z,2.10
2022-09-26T00:57:23.901Z,2.30
2022-09-26T00:58:23.884Z,2.40
2022-09-26T00:59:23.881Z,2.20
2022-09-26T01:00:23.866Z,1.90
2022-09-26T01:01:23.952Z,2.00
2022-09-26T01:02:23.976Z,2.00
2022-09-26T01:03:23.833Z,2.10
2022-09-26T01:04:23.825Z,2.40
2022-09-26T01:05:23.867Z,1.90
2022-09-26T01:06:23.802Z,2.00
2022-09-26T01:07:23.809Z,2.10
2022-09-26T01:08:23.781Z,2.00
2022-09-26T01:09:23.784Z,1.80
2022-09-26T01:10:23.770Z,2.20
2022-09-26T01:11:23.750Z,2.10
2022-09-26T01:12:23.755Z,1.90
2022-09-26T01:13:23.730Z,2.00
2022-09-26T01:14:23.709Z,2.60
2022-09-26T01:15:23.702Z,1.80
2022-09-26T01:16:23.859Z,2.00
2022-09-26T01:17:23.697Z,2.40
2022-09-26T01:18:23.670Z,2.20
2022-09-26T01:19:23.668Z,2.00
2022-09-26T01:20:23.644Z,2.40
2022-09-26T01:21:23.637Z,2.10
2022-09-26T01:22:23.668Z,2.10
2022-09-26T01:23:23.618Z,2.20
2022-09-26T01:24:23.602Z,1.80
2022-09-26T01:25:23.593Z,2.00
2022-09-26T01:26:23.579Z,2.00
2022-09-26T01:27:23.583Z,2.10
2022-09-26T01:28:23.591Z,1.80
2022-09-26T01:29:23.552Z,2.20
2022-09-26T01:30:23.647Z,2.60
2022-09-26T01:31:23.633Z,2.30
2022-09-26T01:32:23.524Z,2.10
2022-09-26T01:33:23.501Z,1.90
2022-09-26T01:34:23.519Z,2.20
2022-09-26T01:35:23.487Z,2.10
2022-09-26T01:36:23.483Z,1.90
2022-09-26T01:37:23.517Z,2.70
2022-09-26T01:38:23.444Z,2.20
2022-09-26T01:39:23.442Z,2.30
2022-09-26T01:40:23.474Z,2.40
2022-09-26T01:41:23.431Z,2.30
2022-09-26T01:42:23.427Z,2.10
2022-09-26T01:43:23.420Z,2.60
2022-09-26T01:44:23.387Z,2.20
2022-09-26T01:45:23.387Z,2.10
2022-09-26T01:46:23.415Z,1.90
2022-09-26T01:47:23.386Z,2.30
2022-09-26T01:48:23.348Z,2.30
2022-09-26T01:49:23.326Z,2.00
2022-09-26T01:50:23.333Z,2.70
2022-09-26T01:51:23.318Z,1.70
2022-09-26T01:52:23.309Z,2.00
2022-09-26T01:53:23.286Z,2.10
2022-09-26T01:54:23.277Z,2.40
2022-09-26T01:55:23.265Z,2.20
2022-09-26T01:56:23.247Z,2.10
2022-09-26T01:57:23.267Z,2.00
2022-09-26T01:58:23.229Z,2.20
2022-09-26T01:59:23.283Z,2.20
2022-09-26T02:00:23.213Z,2.50
2022-09-26T02:01:23.446Z,2.30
2022-09-26T02:02:23.254Z,2.90
2022-09-26T02:03:23.181Z,2.00
2022-09-26T02:04:23.163Z,1.90
2022-09-26T02:05:23.158Z,2.20
2022-09-26T02:06:23.141Z,2.10
2022-09-26T02:07:23.161Z,1.90
2022-09-26T02:08:23.118Z,1.90
2022-09-26T02:09:23.121Z,3.00
2022-09-26T02:10:23.101Z,2.00
2022-09-26T02:11:23.091Z,2.30
2022-09-26T02:12:23.087Z,2.30
2022-09-26T02:13:23.070Z,2.10
2022-09-26T02:14:23.067Z,2.20
2022-09-26T02:15:23.051Z,2.20
2022-09-26T02:16:23.084Z,2.10
2022-09-26T02:17:23.045Z,2.30
2022-09-26T02:18:23.014Z,2.00
2022-09-26T02:19:23.003Z,2.00
2022-09-26T02:20:22.990Z,2.20
2022-09-26T02:21:22.986Z,2.30
2022-09-26T02:22:22.981Z,2.20
2022-09-26T02:23:22.968Z,2.20
2022-09-26T02:24:22.947Z,2.60
2022-09-26T02:25:22.947Z,2.20
2022-09-26T02:26:22.924Z,1.90
2022-09-26T02:27:22.930Z,2.50
2022-09-26T02:28:22.936Z,2.30
2022-09-26T02:29:22.889Z,2.10
2022-09-26T02:30:22.881Z,2.20
2022-09-26T02:31:22.939Z,2.00
2022-09-26T02:32:22.873Z,2.20
2022-09-26T02:33:22.847Z,2.20
2022-09-26T02:34:22.843Z,1.90
2022-09-26T02:35:22.844Z,2.20
2022-09-26T02:36:22.830Z,2.40
2022-09-26T02:37:22.823Z,2.60
2022-09-26T02:38:22.801Z,2.20
2022-09-26T02:39:22.770Z,2.20
2022-09-26T02:40:22.817Z,2.50
2022-09-26T02:41:22.804Z,2.40
2022-09-26T02:42:22.764Z,2.50
2022-09-26T02:43:22.738Z,1.90
2022-09-26T02:44:22.730Z,2.30
2022-09-26T02:45:22.715Z,2.20
2022-09-26T02:46:22.764Z,2.50
2022-09-26T02:47:22.707Z,2.80
2022-09-26T02:48:22.684Z,2.30
2022-09-26T02:49:22.721Z,2.10
2022-09-26T02:50:22.676Z,2.30
2022-09-26T02:51:22.649Z,2.20
2022-09-26T02:52:22.658Z,2.50
2022-09-26T02:53:22.643Z,1.80
2022-09-26T02:54:22.612Z,2.50
2022-09-26T02:55:22.613Z,2.10
2022-09-26T02:56:22.592Z,2.70
2022-09-26T02:57:22.600Z,2.20
2022-09-26T02:58:22.571Z,2.10
2022-09-26T02:59:22.564Z,2.20
2022-09-26T03:00:22.549Z,2.10
2022-09-26T03:01:22.645Z,2.10
2022-09-26T03:02:22.546Z,2.00
2022-09-26T03:03:22.614Z,1.90
2022-09-26T03:04:22.603Z,2.00
2022-09-26T03:05:22.497Z,1.90
2022-09-26T03:06:22.486Z,2.20
2022-09-26T03:07:22.502Z,3.10
2022-09-26T03:08:22.484Z,2.20
2022-09-26T03:09:22.488Z,2.60
2022-09-26T03:10:22.515Z,2.10
2022-09-26T03:11:22.425Z,2.30
2022-09-26T03:12:22.439Z,2.40
2022-09-26T03:13:22.455Z,2.10
2022-09-26T03:14:22.416Z,1.80
2022-09-26T03:15:22.391Z,2.10
2022-09-26T03:16:22.473Z,2.70
2022-09-26T03:17:22.390Z,2.20
2022-09-26T03:18:22.356Z,2.20
2022-09-26T03:19:22.351Z,1.90
2022-09-26T03:20:22.337Z,2.30
2022-09-26T03:21:22.320Z,2.20
2022-09-26T03:22:22.325Z,2.10
2022-09-26T03:23:22.297Z,2.50
2022-09-26T03:24:22.283Z,2.40
2022-09-26T03:25:22.284Z,2.20
2022-09-26T03:26:22.274Z,2.10
2022-09-26T03:27:22.273Z,2.00
2022-09-26T03:28:22.255Z,2.30
2022-09-26T03:29:22.234Z,1.80
2022-09-26T03:30:22.223Z,1.70
2022-09-26T03:31:22.323Z,2.30
2022-09-26T03:32:22.214Z,2.20
2022-09-26T03:33:22.210Z,2.50
2022-09-26T03:34:22.181Z,2.10
2022-09-26T03:35:22.209Z,2.10
2022-09-26T03:36:22.158Z,2.10
2022-09-26T03:37:22.169Z,2.40
2022-09-26T03:38:22.138Z,2.30
2022-09-26T03:39:22.155Z,1.80
2022-09-26T03:40:22.145Z,2.10
2022-09-26T03:41:22.108Z,2.30
2022-09-26T03:42:22.110Z,1.90
2022-09-26T03:43:22.080Z,2.20
2022-09-26T03:44:22.079Z,2.10
2022-09-26T03:45:22.112Z,2.40
2022-09-26T03:46:22.042Z,2.10
2022-09-26T03:47:22.072Z,2.20
2022-09-26T03:48:22.027Z,2.30
2022-09-26T03:49:22.017Z,1.80
2022-09-26T03:50:22.003Z,2.30
2022-09-26T03:51:21.997Z,2.90
2022-09-26T03:52:21.985Z,1.90
2022-09-26T03:53:21.995Z,2.00
2022-09-26T03:54:21.971Z,2.00
2022-09-26T03:55:21.949Z,1.90
2022-09-26T03:56:21.947Z,2.50
2022-09-26T03:57:21.928Z,1.90
2022-09-26T03:58:21.936Z,2.10
2022-09-26T03:59:21.912Z,2.30
2022-09-26T04:00:21.913Z,1.80
2022-09-26T04:01:21.936Z,2.20
2022-09-26T04:02:21.927Z,2.10
2022-09-26T04:03:21.912Z,2.00
2022-09-26T04:04:21.852Z,2.60
2022-09-26T04:05:21.844Z,2.60
2022-09-26T04:06:21.850Z,2.00
2022-09-26T04:07:21.825Z,1.90
2022-09-26T04:08:21.822Z,2.10
2022-09-26T04:09:22.175Z,2.50
2022-09-26T04:10:21.786Z,2.40
2022-09-26T04:11:21.781Z,2.10
2022-09-26T04:12:21.796Z,2.10
2022-09-26T04:13:49.545Z,2.10
2022-09-26T04:14:21.751Z,1.80
2022-09-26T04:15:21.730Z,2.00
2022-09-26T04:16:21.749Z,2.40
2022-09-26T04:17:21.710Z,2.20
2022-09-26T04:18:21.757Z,1.90
2022-09-26T04:19:21.695Z,2.20
2022-09-26T04:20:21.726Z,2.40
2022-09-26T04:21:21.669Z,2.20
2022-09-26T04:22:21.656Z,2.10
2022-09-26T04:23:21.670Z,1.90
2022-09-26T04:24:21.671Z,2.40
2022-09-26T04:25:21.621Z,2.10
2022-09-26T04:26:23.696Z,2.20
2022-09-26T04:27:21.603Z,2.40
2022-09-26T04:28:21.606Z,2.40
2022-09-26T04:29:21.588Z,2.60
2022-09-26T04:30:21.573Z,2.50
2022-09-26T04:31:21.707Z,2.20
2022-09-26T04:32:21.585Z,2.00
2022-09-26T04:33:21.576Z,2.30
2022-09-26T04:34:26.825Z,2.40
2022-09-26T04:35:21.526Z,2.10
2022-09-26T04:36:21.509Z,2.40
2022-09-26T04:37:21.496Z,2.10
2022-09-26T04:38:21.506Z,2.10
2022-09-26T04:39:21.487Z,2.20
2022-09-26T04:40:21.497Z,2.50
2022-09-26T04:41:21.443Z,2.30
2022-09-26T04:42:21.443Z,2.10
2022-09-26T04:43:21.472Z,2.60
2022-09-26T04:44:21.428Z,2.20
2022-09-26T04:45:21.486Z,2.10
2022-09-26T04:46:24.616Z,2.40
2022-09-26T04:47:21.404Z,2.60
2022-09-26T04:48:21.401Z,2.30
2022-09-26T04:49:21.364Z,2.30
2022-09-26T04:50:21.357Z,2.70
2022-09-26T04:51:21.342Z,1.90
2022-09-26T04:52:21.325Z,2.30
2022-09-26T04:53:21.355Z,2.10
2022-09-26T04:54:21.313Z,2.00
2022-09-26T04:55:21.291Z,2.00
2022-09-26T04:56:21.330Z,2.20
2022-09-26T04:57:21.287Z,2.20
2022-09-26T04:58:21.282Z,2.10
2022-09-26T04:59:21.269Z,2.40
2022-09-26T05:00:21.244Z,2.10
2022-09-26T05:01:21.340Z,2.50
2022-09-26T05:02:21.273Z,2.30
2022-09-26T05:03:21.223Z,2.10
2022-09-26T05:04:26.668Z,2.10
2022-09-26T05:05:21.212Z,3.00
2022-09-26T05:06:21.192Z,2.80
2022-09-26T05:07:21.170Z,2.10
2022-09-26T05:08:21.180Z,2.70
2022-09-26T05:09:21.142Z,2.20
2022-09-26T05:10:21.136Z,2.40
2022-09-26T05:11:21.149Z,2.20
2022-09-26T05:12:21.117Z,2.20
2022-09-26T05:13:21.119Z,2.40
2022-09-26T05:14:21.087Z,2.40
2022-09-26T05:15:21.165Z,2.50
2022-09-26T05:16:21.130Z,2.40
2022-09-26T05:17:21.061Z,2.10
2022-09-26T05:18:21.611Z,2.60
2022-09-26T05:19:27.598Z,2.60
2022-09-26T05:20:21.131Z,2.30
2022-09-26T05:21:21.019Z,2.00
2022-09-26T05:22:20.999Z,2.50
2022-09-26T05:23:21.014Z,2.50
2022-09-26T05:24:20.985Z,1.80
2022-09-26T05:25:20.979Z,1.90
2022-09-26T05:26:20.958Z,2.30
2022-09-26T05:27:20.963Z,1.90
2022-09-26T05:28:20.977Z,2.40
2022-09-26T05:29:20.962Z,2.20
2022-09-26T05:30:20.922Z,2.00
2022-09-26T05:31:20.946Z,1.80
2022-09-26T05:32:20.900Z,2.30
2022-09-26T05:33:20.902Z,2.00
2022-09-26T05:34:20.881Z,2.30
2022-09-26T05:35:20.863Z,2.10
2022-09-26T05:36:20.853Z,2.00
2022-09-26T05:37:20.844Z,2.70
2022-09-26T05:38:20.851Z,2.20
2022-09-26T05:39:20.825Z,1.80
2022-09-26T05:40:20.859Z,2.30
2022-09-26T05:41:20.811Z,2.00
2022-09-26T05:42:20.803Z,2.10
2022-09-26T05:43:20.821Z,2.10
2022-09-26T05:44:20.770Z,2.20
2022-09-26T05:45:20.768Z,2.00
2022-09-26T05:46:20.799Z,2.10
2022-09-26T05:47:20.738Z,2.20
2022-09-26T05:48:20.742Z,1.90
2022-09-26T05:49:20.717Z,2.10
2022-09-26T05:50:20.711Z,1.90
2022-09-26T05:51:20.693Z,2.10
2022-09-26T05:52:20.677Z,1.80
2022-09-26T05:53:20.701Z,2.20
2022-09-26T05:54:20.662Z,2.40
2022-09-26T05:55:20.650Z,2.10
2022-09-26T05:56:20.636Z,2.10
2022-09-26T05:57:20.621Z,2.10
2022-09-26T05:58:20.637Z,2.00
2022-09-26T05:59:20.696Z,1.90
2022-09-26T06:00:20.594Z,2.20
2022-09-26T06:01:20.727Z,1.90
2022-09-26T06:02:21.175Z,1.60
2022-09-26T06:03:20.579Z,1.60
2022-09-26T06:04:20.564Z,1.90
2022-09-26T06:05:20.561Z,1.50
2022-09-26T06:06:20.537Z,1.70
2022-09-26T06:07:20.544Z,2.00
2022-09-26T06:08:20.538Z,1.90
2022-09-26T06:09:20.501Z,1.90
2022-09-26T06:10:20.496Z,1.90
2022-09-26T06:11:20.475Z,2.00
2022-09-26T06:12:20.473Z,1.90
2022-09-26T06:13:20.484Z,2.10
2022-09-26T06:14:20.444Z,2.10
2022-09-26T06:15:20.435Z,1.90
2022-09-26T06:16:20.464Z,2.40
2022-09-26T06:17:20.424Z,2.30
2022-09-26T06:18:20.418Z,2.50
2022-09-26T06:19:22.959Z,1.90
2022-09-26T06:20:20.378Z,2.50
2022-09-26T06:21:20.398Z,2.50
2022-09-26T06:22:20.366Z,2.20
2022-09-26T06:23:20.377Z,2.10
2022-09-26T06:24:20.365Z,2.40
2022-09-26T06:25:20.347Z,2.40
2022-09-26T06:26:20.319Z,2.00
2022-09-26T06:27:20.309Z,2.30
2022-09-26T06:28:20.325Z,2.00
2022-09-26T06:29:20.285Z,1.90
2022-09-26T06:30:20.269Z,2.30
2022-09-26T06:31:20.342Z,2.00
2022-09-26T06:32:20.266Z,2.30
2022-09-26T06:33:20.269Z,2.60
2022-09-26T06:34:20.235Z,1.80
2022-09-26T06:35:20.222Z,2.10
2022-09-26T06:36:20.210Z,2.20
2022-09-26T06:37:20.204Z,2.30
2022-09-26T06:38:20.212Z,2.60
2022-09-26T06:39:20.184Z,2.20
2022-09-26T06:40:20.306Z,2.50
2022-09-26T06:41:20.162Z,2.30
2022-09-26T06:42:20.167Z,2.30
2022-09-26T06:43:20.157Z,2.10
2022-09-26T06:44:20.130Z,2.30
2022-09-26T06:45:20.147Z,2.30
2022-09-26T06:46:20.171Z,2.40
2022-09-26T06:47:20.094Z,2.40
2022-09-26T06:48:24.412Z,2.70
2022-09-26T06:49:20.098Z,2.10
2022-09-26T06:50:20.061Z,1.80
2022-09-26T06:51:20.091Z,2.20
2022-09-26T06:52:20.064Z,2.50
2022-09-26T06:53:20.048Z,2.30
2022-09-26T06:54:20.019Z,2.20
2022-09-26T06:55:20.014Z,2.20
2022-09-26T06:56:19.991Z,2.20
2022-09-26T06:57:19.991Z,2.20
2022-09-26T06:58:19.989Z,2.30
2022-09-26T06:59:19.961Z,2.40
2022-09-26T07:00:19.952Z,1.90
2022-09-26T07:01:20.113Z,2.20
2022-09-26T07:02:20.025Z,2.10
2022-09-26T07:03:19.943Z,2.00
2022-09-26T07:04:19.898Z,2.70
2022-09-26T07:05:19.917Z,2.50
2022-09-26T07:06:19.904Z,2.10
2022-09-26T07:07:19.870Z,2.60
2022-09-26T07:08:19.872Z,2.00
2022-09-26T07:09:20.033Z,2.70
2022-09-26T07:10:19.840Z,2.00
2022-09-26T07:11:56.137Z,2.30
2022-09-26T07:12:19.823Z,2.70
2022-09-26T07:13:19.831Z,2.20
2022-09-26T07:14:19.795Z,2.00
2022-09-26T07:15:19.784Z,2.60
2022-09-26T07:16:19.856Z,2.10
2022-09-26T07:17:19.760Z,2.30
2022-09-26T07:18:19.772Z,2.10
2022-09-26T07:19:19.750Z,2.50
2022-09-26T07:20:19.721Z,2.20
2022-09-26T07:21:19.716Z,2.10
2022-09-26T07:22:19.715Z,2.20
2022-09-26T07:23:19.721Z,2.60
2022-09-26T07:24:19.679Z,2.20
2022-09-26T07:25:19.675Z,2.30
2022-09-26T07:26:19.665Z,2.20
2022-09-26T07:27:19.651Z,1.90
2022-09-26T07:28:19.661Z,2.20
2022-09-26T07:29:19.627Z,2.40
2022-09-26T07:30:19.633Z,1.90
2022-09-26T07:31:19.652Z,2.30
2022-09-26T07:32:19.592Z,2.30
2022-09-26T07:33:19.616Z,2.50
2022-09-26T07:34:19.577Z,2.70
2022-09-26T07:35:19.566Z,2.70
2022-09-26T07:36:19.549Z,2.10
2022-09-26T07:37:19.556Z,2.10
2022-09-26T07:38:19.540Z,2.30
2022-09-26T07:39:19.540Z,2.00
2022-09-26T07:40:19.551Z,2.60
2022-09-26T07:41:19.497Z,2.10
2022-09-26T07:42:19.474Z,2.50
2022-09-26T07:43:20.656Z,2.30
2022-09-26T07:45:09.262Z,1.80
2022-09-26T07:45:29.643Z,2.20
2022-09-26T07:46:19.485Z,2.40
2022-09-26T07:47:19.433Z,2.40
2022-09-26T07:48:19.413Z,2.70
2022-09-26T07:49:19.422Z,2.40
2022-09-26T07:50:19.389Z,2.30
2022-09-26T07:51:19.385Z,2.10
2022-09-26T07:52:19.372Z,3.30
2022-09-26T07:53:19.367Z,2.00
2022-09-26T07:54:19.366Z,2.30
2022-09-26T07:55:19.350Z,2.20
2022-09-26T07:56:19.370Z,3.00
2022-09-26T07:57:19.355Z,2.20
2022-09-26T07:58:19.317Z,2.70
2022-09-26T07:59:19.310Z,2.70
2022-09-26T08:00:19.306Z,2.60
2022-09-26T08:01:19.349Z,3.00
2022-09-26T08:02:19.435Z,2.50
2022-09-26T08:03:19.341Z,2.90
2022-09-26T08:04:19.245Z,2.70
2022-09-26T08:05:19.255Z,2.70
2022-09-26T08:06:19.217Z,3.00
2022-09-26T08:07:19.222Z,3.90
2022-09-26T08:08:19.196Z,3.20
2022-09-26T08:09:19.190Z,3.20
2022-09-26T08:10:19.199Z,3.50
2022-09-26T08:11:19.168Z,3.00
2022-09-26T08:12:19.158Z,3.40
2022-09-26T08:13:19.149Z,3.00
2022-09-26T08:14:19.134Z,2.90
2022-09-26T08:15:19.150Z,3.20
2022-09-26T08:16:19.422Z,3.50
2022-09-26T08:17:19.115Z,3.20
2022-09-26T08:18:19.087Z,3.70
2022-09-26T08:19:19.073Z,3.40
2022-09-26T08:20:19.077Z,3.00
2022-09-26T08:21:19.052Z,3.30
2022-09-26T08:22:19.052Z,3.30
2022-09-26T08:23:19.030Z,3.40
2022-09-26T08:24:19.051Z,3.70
2022-09-26T08:25:19.031Z,3.60
2022-09-26T08:26:19.012Z,3.40
2022-09-26T08:27:18.996Z,3.20
2022-09-26T08:28:18.985Z,3.60
2022-09-26T08:29:18.980Z,3.80
2022-09-26T08:30:18.980Z,3.80
2022-09-26T08:31:19.031Z,3.20
2022-09-26T08:32:18.936Z,4.30
2022-09-26T08:33:18.927Z,3.70
2022-09-26T08:34:24.127Z,3.80
2022-09-26T08:35:18.922Z,3.80
2022-09-26T08:36:18.882Z,2.90
2022-09-26T08:37:18.885Z,3.60
2022-09-26T08:38:18.886Z,3.30
2022-09-26T08:39:18.873Z,3.60
2022-09-26T08:40:19.004Z,3.60
2022-09-26T08:41:18.843Z,3.90
2022-09-26T08:42:18.826Z,3.70
2022-09-26T08:43:18.809Z,3.70
2022-09-26T08:44:18.799Z,4.10
2022-09-26T08:45:18.824Z,3.70
2022-09-26T08:46:18.861Z,4.50
2022-09-26T08:47:18.765Z,4.30
2022-09-26T08:48:18.778Z,3.80
2022-09-26T08:49:18.748Z,3.60
2022-09-26T08:50:18.894Z,4.40
2022-09-26T08:51:18.745Z,4.10
2022-09-26T08:52:18.725Z,3.70
2022-09-26T08:53:18.704Z,3.40
2022-09-26T08:54:18.688Z,3.80
2022-09-26T08:55:18.726Z,4.00
2022-09-26T08:56:18.671Z,3.80
2022-09-26T08:57:18.663Z,4.40
2022-09-26T08:58:18.668Z,3.80
2022-09-26T08:59:18.641Z,3.60
2022-09-26T09:00:18.681Z,3.80
2022-09-26T09:01:18.665Z,3.70
2022-09-26T09:02:18.760Z,3.80
2022-09-26T09:03:18.592Z,3.80
2022-09-26T09:04:19.187Z,4.40
2022-09-26T09:05:18.591Z,4.10
2022-09-26T09:06:18.562Z,3.70
2022-09-26T09:07:18.559Z,4.70
2022-09-26T09:08:18.534Z,4.00
2022-09-26T09:09:18.527Z,3.90
2022-09-26T09:10:18.573Z,4.20
2022-09-26T09:11:18.515Z,4.10
2022-09-26T09:12:22.949Z,3.50
2022-09-26T09:13:18.492Z,3.90
2022-09-26T09:14:18.478Z,3.80
2022-09-26T09:15:25.866Z,3.70
2022-09-26T09:16:18.513Z,4.30
2022-09-26T09:17:18.439Z,3.70
2022-09-26T09:18:18.424Z,4.10
2022-09-26T09:19:18.412Z,3.60
2022-09-26T09:20:18.493Z,3.40
2022-09-26T09:21:18.417Z,4.40
2022-09-26T09:22:18.379Z,3.70
2022-09-26T09:23:18.380Z,3.90
2022-09-26T09:24:18.365Z,3.70
2022-09-26T09:25:18.370Z,3.10
2022-09-26T09:28:18.325Z,3.40
2022-09-26T09:29:19.518Z,3.40
2022-09-26T09:30:18.320Z,3.00
2022-09-26T09:31:18.331Z,3.30
2022-09-26T09:32:18.277Z,3.50
2022-09-26T09:33:18.274Z,3.20
2022-09-26T09:34:18.252Z,3.20
2022-09-26T09:35:18.267Z,2.90
2022-09-26T09:36:18.228Z,3.00
2022-09-26T09:37:18.228Z,2.70
2022-09-26T09:38:18.211Z,3.10
2022-09-26T09:39:18.213Z,3.30
2022-09-26T09:40:18.267Z,3.50
2022-09-26T09:41:18.191Z,3.20
2022-09-26T09:42:18.164Z,2.70
2022-09-26T09:43:18.151Z,3.10
2022-09-26T09:44:18.138Z,2.80
2022-09-26T09:45:18.150Z,2.80
2022-09-26T09:46:18.182Z,2.70
2022-09-26T09:47:18.111Z,2.70
2022-09-26T09:48:18.111Z,2.60
2022-09-26T09:49:18.097Z,2.90
2022-09-26T09:50:18.099Z,2.60
2022-09-26T09:51:18.068Z,2.90
2022-09-26T09:52:18.079Z,2.60
2022-09-26T09:53:18.051Z,2.90
2022-09-26T09:54:18.057Z,3.10
2022-09-26T09:55:18.043Z,2.70
2022-09-26T09:56:18.012Z,2.90
2022-09-26T09:57:18.004Z,3.00
2022-09-26T09:58:17.987Z,2.90
2022-09-26T09:59:17.986Z,2.60
2022-09-26T10:00:17.982Z,3.00
2022-09-26T10:01:17.958Z,3.00
2022-09-26T10:02:17.950Z,2.50
2022-09-26T10:03:18.005Z,2.40
2022-09-26T10:04:17.923Z,2.60
2022-09-26T10:05:17.936Z,2.40
2022-09-26T10:06:45.314Z,3.00
2022-09-26T10:07:17.888Z,2.80
2022-09-26T10:08:17.880Z,3.00
2022-09-26T10:09:35.989Z,2.80
2022-09-26T10:10:17.888Z,2.70
2022-09-26T10:11:17.848Z,2.80
2022-09-26T10:12:17.835Z,2.40
2022-09-26T10:13:17.825Z,2.30
2022-09-26T10:14:17.812Z,2.50
2022-09-26T10:15:17.817Z,2.70
2022-09-26T10:16:17.859Z,2.60
2022-09-26T10:17:17.779Z,2.20
2022-09-26T10:18:26.528Z,2.60
2022-09-26T10:19:17.758Z,2.10
2022-09-26T10:20:17.772Z,2.40
2022-09-26T10:21:17.751Z,2.30
2022-09-26T10:22:17.733Z,2.20
2022-09-26T10:23:17.723Z,2.40
2022-09-26T10:24:17.700Z,2.40
2022-09-26T10:25:17.742Z,2.30
2022-09-26T10:26:17.683Z,2.50
2022-09-26T10:27:17.664Z,1.90
2022-09-26T10:28:17.668Z,2.40
2022-09-26T10:29:17.653Z,2.00
2022-09-26T10:30:17.651Z,2.40
2022-09-26T10:31:17.692Z,2.20
2022-09-26T10:32:17.613Z,2.60
2022-09-26T10:33:17.607Z,2.10
2022-09-26T10:34:17.586Z,2.30
2022-09-26T10:35:19.809Z,1.90
2022-09-26T10:36:17.570Z,1.90
2022-09-26T10:37:17.553Z,2.30
2022-09-26T10:38:17.545Z,2.60
2022-09-26T10:39:17.543Z,2.00
2022-09-26T10:40:17.681Z,2.40
2022-09-26T10:41:17.528Z,2.10
2022-09-26T10:42:17.508Z,1.70
2022-09-26T10:43:17.501Z,2.10
2022-09-26T10:44:17.483Z,2.00
2022-09-26T10:45:17.496Z,2.30
2022-09-26T10:46:17.581Z,2.20
2022-09-26T10:47:17.467Z,2.20
2022-09-26T10:48:17.454Z,2.20
2022-09-26T10:49:17.429Z,2.20
2022-09-26T10:50:17.444Z,2.50
2022-09-26T10:51:17.409Z,2.10
2022-09-26T10:52:18.825Z,2.00
2022-09-26T10:53:17.398Z,2.20
2022-09-26T10:54:17.394Z,2.20
2022-09-26T10:55:17.380Z,2.50
2022-09-26T10:56:17.350Z,2.60
2022-09-26T10:57:17.345Z,2.40
2022-09-26T10:58:17.338Z,1.90
2022-09-26T10:59:17.322Z,2.30
2022-09-26T11:00:17.320Z,2.20
2022-09-26T11:01:17.333Z,2.30
2022-09-26T11:02:17.289Z,2.00
2022-09-26T11:03:17.375Z,2.30
2022-09-26T11:04:22.585Z,2.10
2022-09-26T11:05:17.269Z,1.80
2022-09-26T11:06:20.554Z,3.00
2022-09-26T11:07:17.247Z,2.50
2022-09-26T11:08:17.227Z,2.30
2022-09-26T11:09:17.208Z,2.50
2022-09-26T11:10:17.217Z,2.20
2022-09-26T11:11:17.214Z,2.20
2022-09-26T11:12:17.176Z,2.60
2022-09-26T11:13:17.179Z,2.40
2022-09-26T11:14:17.156Z,2.30
2022-09-26T11:15:17.157Z,2.40
2022-09-26T11:16:17.235Z,2.50
2022-09-26T11:17:17.138Z,2.30
2022-09-26T11:18:17.111Z,2.60
2022-09-26T11:20:11.095Z,2.60
2022-09-26T11:21:27.850Z,2.20
2022-09-26T11:22:12.074Z,2.30
2022-09-26T11:23:12.050Z,2.10
2022-09-26T11:26:35.172Z,2.80
2022-09-26T11:28:47.784Z,3.10
2022-09-26T11:32:11.862Z,2.30
2022-09-26T11:33:12.853Z,2.80
2022-09-26T11:34:12.923Z,3.20
2022-09-26T11:35:33.860Z,3.00
2022-09-26T11:36:12.984Z,3.30
2022-09-26T11:38:24.379Z,2.80
2022-09-26T11:39:25.465Z,2.70
2022-09-26T11:40:25.465Z,2.90
2022-09-26T11:41:25.345Z,3.30
2022-09-26T11:42:25.330Z,2.70
2022-09-26T11:43:25.336Z,2.90
2022-09-26T11:44:25.313Z,2.90
2022-09-26T11:45:25.326Z,2.70
2022-09-26T11:46:25.403Z,2.80
2022-09-26T11:47:25.280Z,2.90
2022-09-26T11:48:25.276Z,2.90
2022-09-26T11:49:25.265Z,3.40
2022-09-26T11:50:25.293Z,2.90
2022-09-26T11:51:25.278Z,3.20
2022-09-26T11:52:25.231Z,3.00
2022-09-26T11:53:25.219Z,2.90
2022-09-26T11:54:25.223Z,3.50
2022-09-26T11:55:25.212Z,2.90
2022-09-26T11:56:25.182Z,3.00
2022-09-26T11:57:25.196Z,2.90
2022-09-26T11:58:25.187Z,3.20
2022-09-26T11:59:25.156Z,3.10
2022-09-26T12:00:25.159Z,3.20
2022-09-26T12:01:25.130Z,3.00
2022-09-26T12:02:25.229Z,3.00
2022-09-26T12:03:25.232Z,3.10
2022-09-26T12:04:25.094Z,3.10
2022-09-26T12:05:27.225Z,3.10
2022-09-26T12:06:25.073Z,3.30
2022-09-26T12:07:25.071Z,3.70
2022-09-26T12:08:25.062Z,3.60
2022-09-26T12:09:25.068Z,3.10
2022-09-26T12:10:25.039Z,3.60
2022-09-26T12:11:25.024Z,3.20
2022-09-26T12:12:25.022Z,3.30
2022-09-26T12:13:25.001Z,3.50
2022-09-26T12:14:24.986Z,3.40
2022-09-26T12:15:25.017Z,3.40
2022-09-26T12:16:25.042Z,3.30
2022-09-26T12:17:24.952Z,2.90
2022-09-26T12:18:24.941Z,3.40
2022-09-26T12:19:24.952Z,3.60
2022-09-26T12:20:24.940Z,3.40
2022-09-26T12:21:24.912Z,3.20
2022-09-26T12:22:24.905Z,3.80
2022-09-26T12:23:24.894Z,3.40
2022-09-26T12:24:24.870Z,3.10
2022-09-26T12:25:24.897Z,3.00
2022-09-26T12:26:24.854Z,2.80
2022-09-26T12:27:24.842Z,2.90
2022-09-26T12:28:24.840Z,2.80
2022-09-26T12:29:24.815Z,2.90
2022-09-26T12:30:24.835Z,2.90
2022-09-26T12:31:24.866Z,3.00
2022-09-26T12:32:24.795Z,2.90
2022-09-26T12:33:24.777Z,2.90
2022-09-26T12:34:24.781Z,2.80
2022-09-26T12:35:24.779Z,2.80
2022-09-26T12:36:24.744Z,2.80
2022-09-26T12:37:24.787Z,3.40
2022-09-26T12:38:24.729Z,2.90
2022-09-26T12:39:24.713Z,2.60
2022-09-26T12:40:24.777Z,2.60
2022-09-26T12:41:24.696Z,2.70
2022-09-26T12:42:24.678Z,2.70
2022-09-26T12:43:24.725Z,2.70
2022-09-26T12:44:24.670Z,2.70
2022-09-26T12:45:24.692Z,2.40
2022-09-26T12:46:24.681Z,3.00
2022-09-26T12:47:24.647Z,2.80
2022-09-26T12:48:24.615Z,2.10
2022-09-26T12:49:24.607Z,2.60
2022-09-26T12:50:24.644Z,2.40
2022-09-26T12:51:24.592Z,2.80
2022-09-26T12:52:27.307Z,2.10
2022-09-26T12:53:24.591Z,2.50
2022-09-26T12:54:24.549Z,2.40
2022-09-26T12:55:24.563Z,2.40
2022-09-26T12:56:24.531Z,2.30
2022-09-26T12:57:24.531Z,2.40
2022-09-26T12:58:24.560Z,2.00
2022-09-26T12:59:24.544Z,2.20
2022-09-26T13:00:24.513Z,2.20
2022-09-26T13:01:24.545Z,2.40
2022-09-26T13:02:24.496Z,1.90
2022-09-26T13:03:24.456Z,2.10
2022-09-26T13:04:24.437Z,2.10
2022-09-26T13:05:24.467Z,2.10
2022-09-26T13:06:24.413Z,1.90
2022-09-26T13:07:24.421Z,2.00
2022-09-26T13:08:24.393Z,2.20
2022-09-26T13:09:24.407Z,2.20
2022-09-26T13:10:24.395Z,1.70
2022-09-26T13:11:24.372Z,2.20
2022-09-26T13:12:24.352Z,2.00
2022-09-26T13:13:24.349Z,2.00
2022-09-26T13:14:24.343Z,1.90
2022-09-26T13:15:24.346Z,1.70
2022-09-26T13:16:24.393Z,2.30
2022-09-26T13:17:24.305Z,2.20
2022-09-26T13:18:26.544Z,2.60
2022-09-26T13:19:24.294Z,2.20
2022-09-26T13:20:24.286Z,2.00
2022-09-26T13:21:24.255Z,2.80
2022-09-26T13:22:24.269Z,2.40
2022-09-26T13:23:24.246Z,2.00
2022-09-26T13:24:24.225Z,2.30
2022-09-26T13:25:24.223Z,2.20
2022-09-26T13:26:24.256Z,2.30
2022-09-26T13:27:24.205Z,2.10
2022-09-26T13:28:24.249Z,1.90